sensor_id;sensor_type;location;lat;lon;timestamp;temperature;humidity
25939;DHT22;13739;51.172;4.466;2023-03-04T00:00:06;7.00;99.90
25939;DHT22;13739;51.172;4.466;2023-03-04T00:02:32;7.30;99.90
25939;DHT22;13739;51.172;4.466;2023-03-04T00:04:57;6.80;99.90
25939;DHT22;13739;51.172;4.466;2023-03-04T00:07:23;6.70;99.90
25939;DHT22;13739;51.172;4.466;2023-03-04T00:09:49;6.80;99.90
25939;DHT22;13739;51.172;4.466;2023-03-04T00:12:14;6.70;99.90
25939;DHT22;13739;51.172;4.466;2023-03-04T00:14:40;7.00;99.90
25939;DHT22;13739;51.172;4.466;2023-03-04T00:17:06;7.10;99.90
25939;DHT22;13739;51.172;4.466;2023-03-04T00:19:32;7.10;99.90
25939;DHT22;13739;51.172;4.466;2023-03-04T00:21:59;7.10;99.90
25939;DHT22;13739;51.172;4.466;2023-03-04T00:24:25;7.30;99.90
25939;DHT22;13739;51.172;4.466;2023-03-04T00:26:51;7.40;99.90
25939;DHT22;13739;51.172;4.466;2023-03-04T00:29:16;7.20;99.90
25939;DHT22;13739;51.172;4.466;2023-03-04T00:31:42;6.80;99.90
25939;DHT22;13739;51.172;4.466;2023-03-04T00:34:08;7.00;99.90
25939;DHT22;13739;51.172;4.466;2023-03-04T00:36:33;7.00;99.90
25939;DHT22;13739;51.172;4.466;2023-03-04T00:38:59;6.90;99.90
25939;DHT22;13739;51.172;4.466;2023-03-04T00:41:25;6.80;99.90
25939;DHT22;13739;51.172;4.466;2023-03-04T00:43:50;6.50;99.90
25939;DHT22;13739;51.172;4.466;2023-03-04T00:46:16;6.60;99.90
25939;DHT22;13739;51.172;4.466;2023-03-04T00:48:42;6.90;99.90
25939;DHT22;13739;51.172;4.466;2023-03-04T00:51:07;6.90;99.90
25939;DHT22;13739;51.172;4.466;2023-03-04T00:53:33;7.10;99.90
25939;DHT22;13739;51.172;4.466;2023-03-04T00:55:59;7.10;99.90
25939;DHT22;13739;51.172;4.466;2023-03-04T00:58:24;6.90;99.90
25939;DHT22;13739;51.172;4.466;2023-03-04T01:00:50;7.00;99.90
25939;DHT22;13739;51.172;4.466;2023-03-04T01:03:16;7.10;99.90
25939;DHT22;13739;51.172;4.466;2023-03-04T01:05:41;7.10;99.90
25939;DHT22;13739;51.172;4.466;2023-03-04T01:08:07;7.00;99.90
25939;DHT22;13739;51.172;4.466;2023-03-04T01:10:33;7.20;99.90
25939;DHT22;13739;51.172;4.466;2023-03-04T01:12:59;7.20;99.90
25939;DHT22;13739;51.172;4.466;2023-03-04T01:15:24;7.30;99.90
25939;DHT22;13739;51.172;4.466;2023-03-04T01:17:50;7.20;99.90
25939;DHT22;13739;51.172;4.466;2023-03-04T01:20:16;7.20;99.90
25939;DHT22;13739;51.172;4.466;2023-03-04T01:22:42;7.10;99.90
25939;DHT22;13739;51.172;4.466;2023-03-04T01:25:09;7.00;99.90
25939;DHT22;13739;51.172;4.466;2023-03-04T01:27:35;7.00;99.90
25939;DHT22;13739;51.172;4.466;2023-03-04T01:30:00;7.30;99.90
25939;DHT22;13739;51.172;4.466;2023-03-04T01:32:26;7.30;99.90
25939;DHT22;13739;51.172;4.466;2023-03-04T01:34:52;7.30;99.90
25939;DHT22;13739;51.172;4.466;2023-03-04T01:37:17;7.40;99.90
25939;DHT22;13739;51.172;4.466;2023-03-04T01:39:43;7.40;99.90
25939;DHT22;13739;51.172;4.466;2023-03-04T01:42:17;7.30;99.90
25939;DHT22;13739;51.172;4.466;2023-03-04T01:44:44;7.30;99.90
25939;DHT22;13739;51.172;4.466;2023-03-04T01:47:11;7.10;99.90
25939;DHT22;13739;51.172;4.466;2023-03-04T01:49:36;7.20;99.90
25939;DHT22;13739;51.172;4.466;2023-03-04T01:52:02;7.50;99.90
25939;DHT22;13739;51.172;4.466;2023-03-04T01:54:28;7.40;99.90
25939;DHT22;13739;51.172;4.466;2023-03-04T01:56:54;7.20;99.90
25939;DHT22;13739;51.172;4.466;2023-03-04T01:59:23;7.30;99.90
25939;DHT22;13739;51.172;4.466;2023-03-04T02:01:55;7.30;99.90
25939;DHT22;13739;51.172;4.466;2023-03-04T02:04:27;7.40;99.90
25939;DHT22;13739;51.172;4.466;2023-03-04T02:06:54;7.60;99.90
25939;DHT22;13739;51.172;4.466;2023-03-04T02:09:21;7.30;99.90
25939;DHT22;13739;51.172;4.466;2023-03-04T02:11:47;7.30;99.90
25939;DHT22;13739;51.172;4.466;2023-03-04T02:14:14;7.20;99.90
25939;DHT22;13739;51.172;4.466;2023-03-04T02:16:41;7.20;99.90
25939;DHT22;13739;51.172;4.466;2023-03-04T02:22:03;7.30;99.90
25939;DHT22;13739;51.172;4.466;2023-03-04T02:24:35;7.30;99.90
25939;DHT22;13739;51.172;4.466;2023-03-04T02:27:03;7.30;99.90
25939;DHT22;13739;51.172;4.466;2023-03-04T02:29:29;7.00;99.90
25939;DHT22;13739;51.172;4.466;2023-03-04T02:31:55;7.00;99.90
25939;DHT22;13739;51.172;4.466;2023-03-04T02:34:24;6.80;99.90
25939;DHT22;13739;51.172;4.466;2023-03-04T02:36:51;6.80;99.90
25939;DHT22;13739;51.172;4.466;2023-03-04T02:39:34;7.00;99.90
25939;DHT22;13739;51.172;4.466;2023-03-04T02:42:01;7.20;99.90
25939;DHT22;13739;51.172;4.466;2023-03-04T02:44:33;7.00;99.90
25939;DHT22;13739;51.172;4.466;2023-03-04T02:47:00;6.90;99.90
25939;DHT22;13739;51.172;4.466;2023-03-04T02:49:29;7.20;99.90
25939;DHT22;13739;51.172;4.466;2023-03-04T02:52:01;7.20;99.90
25939;DHT22;13739;51.172;4.466;2023-03-04T02:54:27;7.10;99.90
25939;DHT22;13739;51.172;4.466;2023-03-04T02:56:57;7.10;99.90
25939;DHT22;13739;51.172;4.466;2023-03-04T02:59:23;7.10;99.90
25939;DHT22;13739;51.172;4.466;2023-03-04T03:01:49;7.10;99.90
25939;DHT22;13739;51.172;4.466;2023-03-04T03:04:15;7.10;99.90
25939;DHT22;13739;51.172;4.466;2023-03-04T03:06:41;7.00;99.90
25939;DHT22;13739;51.172;4.466;2023-03-04T03:09:07;7.00;99.90
25939;DHT22;13739;51.172;4.466;2023-03-04T03:11:33;6.90;99.90
25939;DHT22;13739;51.172;4.466;2023-03-04T03:13:59;7.10;99.90
25939;DHT22;13739;51.172;4.466;2023-03-04T03:16:25;7.20;99.90
25939;DHT22;13739;51.172;4.466;2023-03-04T03:18:50;7.30;99.90
25939;DHT22;13739;51.172;4.466;2023-03-04T03:21:16;7.40;99.90
25939;DHT22;13739;51.172;4.466;2023-03-04T03:23:42;7.40;99.90
25939;DHT22;13739;51.172;4.466;2023-03-04T03:26:08;7.00;99.90
25939;DHT22;13739;51.172;4.466;2023-03-04T03:28:33;6.80;99.90
25939;DHT22;13739;51.172;4.466;2023-03-04T03:30:59;6.90;99.90
25939;DHT22;13739;51.172;4.466;2023-03-04T03:33:25;7.00;99.90
25939;DHT22;13739;51.172;4.466;2023-03-04T03:35:51;6.90;99.90
25939;DHT22;13739;51.172;4.466;2023-03-04T03:38:16;6.90;99.90
25939;DHT22;13739;51.172;4.466;2023-03-04T03:40:42;6.60;99.90
25939;DHT22;13739;51.172;4.466;2023-03-04T03:43:08;6.60;99.90
25939;DHT22;13739;51.172;4.466;2023-03-04T03:45:34;6.80;99.90
25939;DHT22;13739;51.172;4.466;2023-03-04T03:47:59;6.80;99.90
25939;DHT22;13739;51.172;4.466;2023-03-04T03:50:25;6.80;99.90
25939;DHT22;13739;51.172;4.466;2023-03-04T03:52:51;7.10;99.90
25939;DHT22;13739;51.172;4.466;2023-03-04T03:55:16;7.00;99.90
25939;DHT22;13739;51.172;4.466;2023-03-04T03:57:42;7.10;99.90
25939;DHT22;13739;51.172;4.466;2023-03-04T04:00:08;7.20;99.90
25939;DHT22;13739;51.172;4.466;2023-03-04T04:02:34;7.20;99.90
25939;DHT22;13739;51.172;4.466;2023-03-04T04:05:00;7.00;99.90
25939;DHT22;13739;51.172;4.466;2023-03-04T04:07:26;6.90;99.90
25939;DHT22;13739;51.172;4.466;2023-03-04T04:09:51;6.80;99.90
25939;DHT22;13739;51.172;4.466;2023-03-04T04:12:18;6.80;99.90
25939;DHT22;13739;51.172;4.466;2023-03-04T04:14:43;6.70;99.90
25939;DHT22;13739;51.172;4.466;2023-03-04T04:17:10;6.70;99.90
25939;DHT22;13739;51.172;4.466;2023-03-04T04:19:36;6.70;99.90
25939;DHT22;13739;51.172;4.466;2023-03-04T04:22:02;6.60;99.90
25939;DHT22;13739;51.172;4.466;2023-03-04T04:24:28;6.50;99.90
25939;DHT22;13739;51.172;4.466;2023-03-04T04:26:54;6.70;99.90
25939;DHT22;13739;51.172;4.466;2023-03-04T04:29:20;6.60;99.90
25939;DHT22;13739;51.172;4.466;2023-03-04T04:31:47;6.70;99.90
25939;DHT22;13739;51.172;4.466;2023-03-04T04:34:13;6.70;99.90
25939;DHT22;13739;51.172;4.466;2023-03-04T04:36:39;6.70;99.90
25939;DHT22;13739;51.172;4.466;2023-03-04T04:39:05;6.70;99.90
25939;DHT22;13739;51.172;4.466;2023-03-04T04:41:35;6.60;99.90
25939;DHT22;13739;51.172;4.466;2023-03-04T04:44:01;6.40;99.90
25939;DHT22;13739;51.172;4.466;2023-03-04T04:46:26;6.50;99.90
25939;DHT22;13739;51.172;4.466;2023-03-04T04:48:52;6.50;99.90
25939;DHT22;13739;51.172;4.466;2023-03-04T04:51:18;6.40;99.90
25939;DHT22;13739;51.172;4.466;2023-03-04T04:53:43;6.50;99.90
25939;DHT22;13739;51.172;4.466;2023-03-04T04:56:14;6.50;99.90
25939;DHT22;13739;51.172;4.466;2023-03-04T04:58:39;6.50;99.90
25939;DHT22;13739;51.172;4.466;2023-03-04T05:01:06;6.40;99.90
25939;DHT22;13739;51.172;4.466;2023-03-04T05:03:33;6.40;99.90
25939;DHT22;13739;51.172;4.466;2023-03-04T05:05:59;6.50;99.90
25939;DHT22;13739;51.172;4.466;2023-03-04T05:08:24;6.40;99.90
25939;DHT22;13739;51.172;4.466;2023-03-04T05:10:51;6.50;99.90
25939;DHT22;13739;51.172;4.466;2023-03-04T05:13:17;6.60;99.90
25939;DHT22;13739;51.172;4.466;2023-03-04T05:15:44;6.50;99.90
25939;DHT22;13739;51.172;4.466;2023-03-04T05:18:10;6.60;99.90
25939;DHT22;13739;51.172;4.466;2023-03-04T05:20:35;6.60;99.90
25939;DHT22;13739;51.172;4.466;2023-03-04T05:23:01;6.60;99.90
25939;DHT22;13739;51.172;4.466;2023-03-04T05:25:27;6.50;99.90
25939;DHT22;13739;51.172;4.466;2023-03-04T05:27:53;6.50;99.90
25939;DHT22;13739;51.172;4.466;2023-03-04T05:30:19;6.70;99.90
25939;DHT22;13739;51.172;4.466;2023-03-04T05:32:44;6.70;99.90
25939;DHT22;13739;51.172;4.466;2023-03-04T05:35:10;6.70;99.90
25939;DHT22;13739;51.172;4.466;2023-03-04T05:37:36;6.90;99.90
25939;DHT22;13739;51.172;4.466;2023-03-04T05:40:02;7.00;99.90
25939;DHT22;13739;51.172;4.466;2023-03-04T05:42:29;6.90;99.90
25939;DHT22;13739;51.172;4.466;2023-03-04T05:44:55;6.60;99.90
25939;DHT22;13739;51.172;4.466;2023-03-04T05:47:20;6.70;99.90
25939;DHT22;13739;51.172;4.466;2023-03-04T05:49:46;6.80;99.90
25939;DHT22;13739;51.172;4.466;2023-03-04T05:52:12;6.70;99.90
25939;DHT22;13739;51.172;4.466;2023-03-04T05:54:38;6.60;99.90
25939;DHT22;13739;51.172;4.466;2023-03-04T05:57:03;6.60;99.90
25939;DHT22;13739;51.172;4.466;2023-03-04T05:59:29;6.50;99.90
25939;DHT22;13739;51.172;4.466;2023-03-04T06:01:55;6.40;99.90
25939;DHT22;13739;51.172;4.466;2023-03-04T06:04:21;6.30;99.90
25939;DHT22;13739;51.172;4.466;2023-03-04T06:06:47;6.50;99.90
25939;DHT22;13739;51.172;4.466;2023-03-04T06:09:13;6.50;99.90
25939;DHT22;13739;51.172;4.466;2023-03-04T06:11:39;6.60;99.90
25939;DHT22;13739;51.172;4.466;2023-03-04T06:14:04;6.50;99.90
25939;DHT22;13739;51.172;4.466;2023-03-04T06:16:30;6.60;99.90
25939;DHT22;13739;51.172;4.466;2023-03-04T06:18:56;6.60;99.90
25939;DHT22;13739;51.172;4.466;2023-03-04T06:21:22;6.60;99.90
25939;DHT22;13739;51.172;4.466;2023-03-04T06:23:48;6.70;99.90
25939;DHT22;13739;51.172;4.466;2023-03-04T06:26:13;6.60;99.90
25939;DHT22;13739;51.172;4.466;2023-03-04T06:28:43;6.50;99.90
25939;DHT22;13739;51.172;4.466;2023-03-04T06:31:09;6.30;99.90
25939;DHT22;13739;51.172;4.466;2023-03-04T06:33:34;6.30;99.90
25939;DHT22;13739;51.172;4.466;2023-03-04T06:36:00;6.30;99.90
25939;DHT22;13739;51.172;4.466;2023-03-04T06:38:26;6.50;99.90
25939;DHT22;13739;51.172;4.466;2023-03-04T06:40:52;6.30;99.90
25939;DHT22;13739;51.172;4.466;2023-03-04T06:43:18;6.30;99.90
25939;DHT22;13739;51.172;4.466;2023-03-04T06:45:44;6.30;99.90
25939;DHT22;13739;51.172;4.466;2023-03-04T06:48:10;6.40;99.90
25939;DHT22;13739;51.172;4.466;2023-03-04T06:50:37;6.40;99.90
25939;DHT22;13739;51.172;4.466;2023-03-04T06:53:03;6.50;99.90
25939;DHT22;13739;51.172;4.466;2023-03-04T06:55:29;6.70;99.90
25939;DHT22;13739;51.172;4.466;2023-03-04T06:57:55;6.70;99.90
25939;DHT22;13739;51.172;4.466;2023-03-04T07:00:21;6.60;99.90
25939;DHT22;13739;51.172;4.466;2023-03-04T07:02:48;6.60;99.90
25939;DHT22;13739;51.172;4.466;2023-03-04T07:05:14;6.70;99.90
25939;DHT22;13739;51.172;4.466;2023-03-04T07:07:39;6.50;99.90
25939;DHT22;13739;51.172;4.466;2023-03-04T07:10:05;6.60;99.90
25939;DHT22;13739;51.172;4.466;2023-03-04T07:12:31;6.70;99.90
25939;DHT22;13739;51.172;4.466;2023-03-04T07:14:57;6.80;99.90
25939;DHT22;13739;51.172;4.466;2023-03-04T07:17:23;6.90;99.90
25939;DHT22;13739;51.172;4.466;2023-03-04T07:19:48;6.70;99.90
25939;DHT22;13739;51.172;4.466;2023-03-04T07:22:14;6.90;99.90
25939;DHT22;13739;51.172;4.466;2023-03-04T07:24:40;7.00;99.90
25939;DHT22;13739;51.172;4.466;2023-03-04T07:27:05;7.00;99.90
25939;DHT22;13739;51.172;4.466;2023-03-04T07:29:31;7.10;99.90
25939;DHT22;13739;51.172;4.466;2023-03-04T07:31:56;6.80;99.90
25939;DHT22;13739;51.172;4.466;2023-03-04T07:34:22;6.80;99.90
25939;DHT22;13739;51.172;4.466;2023-03-04T07:36:48;6.90;99.90
25939;DHT22;13739;51.172;4.466;2023-03-04T07:39:13;6.90;99.90
25939;DHT22;13739;51.172;4.466;2023-03-04T07:41:39;6.90;99.90
25939;DHT22;13739;51.172;4.466;2023-03-04T07:44:06;6.90;99.90
25939;DHT22;13739;51.172;4.466;2023-03-04T07:46:33;6.80;99.90
25939;DHT22;13739;51.172;4.466;2023-03-04T07:48:59;6.70;99.90
25939;DHT22;13739;51.172;4.466;2023-03-04T07:51:26;6.70;99.90
25939;DHT22;13739;51.172;4.466;2023-03-04T07:53:57;6.80;99.90
25939;DHT22;13739;51.172;4.466;2023-03-04T07:56:25;6.60;99.90
25939;DHT22;13739;51.172;4.466;2023-03-04T07:58:52;6.60;99.90
25939;DHT22;13739;51.172;4.466;2023-03-04T08:01:21;6.70;99.90
25939;DHT22;13739;51.172;4.466;2023-03-04T08:03:47;6.70;99.90
25939;DHT22;13739;51.172;4.466;2023-03-04T08:06:15;6.60;99.90
25939;DHT22;13739;51.172;4.466;2023-03-04T08:08:41;6.70;99.90
25939;DHT22;13739;51.172;4.466;2023-03-04T08:11:09;6.70;99.90
25939;DHT22;13739;51.172;4.466;2023-03-04T08:13:35;6.70;99.90
25939;DHT22;13739;51.172;4.466;2023-03-04T08:16:01;6.70;99.90
25939;DHT22;13739;51.172;4.466;2023-03-04T08:18:27;6.80;99.90
25939;DHT22;13739;51.172;4.466;2023-03-04T08:20:55;7.10;99.90
25939;DHT22;13739;51.172;4.466;2023-03-04T08:23:21;7.30;99.90
25939;DHT22;13739;51.172;4.466;2023-03-04T08:25:47;7.30;99.90
25939;DHT22;13739;51.172;4.466;2023-03-04T08:28:13;7.40;99.90
25939;DHT22;13739;51.172;4.466;2023-03-04T08:30:40;7.30;99.90
25939;DHT22;13739;51.172;4.466;2023-03-04T08:33:06;7.20;99.90
25939;DHT22;13739;51.172;4.466;2023-03-04T08:35:35;7.40;99.90
25939;DHT22;13739;51.172;4.466;2023-03-04T08:38:00;7.10;99.90
25939;DHT22;13739;51.172;4.466;2023-03-04T08:40:26;7.00;99.90
25939;DHT22;13739;51.172;4.466;2023-03-04T08:42:52;7.00;99.90
25939;DHT22;13739;51.172;4.466;2023-03-04T08:45:18;7.00;99.90
25939;DHT22;13739;51.172;4.466;2023-03-04T08:47:43;7.10;99.90
25939;DHT22;13739;51.172;4.466;2023-03-04T08:50:10;7.40;99.90
25939;DHT22;13739;51.172;4.466;2023-03-04T08:52:36;7.30;99.90
25939;DHT22;13739;51.172;4.466;2023-03-04T08:55:01;7.30;99.90
25939;DHT22;13739;51.172;4.466;2023-03-04T08:57:27;7.10;99.90
25939;DHT22;13739;51.172;4.466;2023-03-04T08:59:53;7.10;99.90
25939;DHT22;13739;51.172;4.466;2023-03-04T09:02:19;7.10;99.90
25939;DHT22;13739;51.172;4.466;2023-03-04T09:04:45;7.20;99.90
25939;DHT22;13739;51.172;4.466;2023-03-04T09:07:10;7.30;99.90
25939;DHT22;13739;51.172;4.466;2023-03-04T09:09:37;7.40;99.90
25939;DHT22;13739;51.172;4.466;2023-03-04T09:12:03;7.60;99.90
25939;DHT22;13739;51.172;4.466;2023-03-04T09:14:32;7.60;99.90
25939;DHT22;13739;51.172;4.466;2023-03-04T09:17:04;7.80;99.90
25939;DHT22;13739;51.172;4.466;2023-03-04T09:19:30;7.90;99.90
25939;DHT22;13739;51.172;4.466;2023-03-04T09:21:56;7.60;99.90
25939;DHT22;13739;51.172;4.466;2023-03-04T09:24:24;7.50;99.90
25939;DHT22;13739;51.172;4.466;2023-03-04T09:26:50;7.70;99.90
25939;DHT22;13739;51.172;4.466;2023-03-04T09:29:16;7.40;99.90
25939;DHT22;13739;51.172;4.466;2023-03-04T09:31:42;7.60;99.90
25939;DHT22;13739;51.172;4.466;2023-03-04T09:34:08;7.40;99.90
25939;DHT22;13739;51.172;4.466;2023-03-04T09:36:33;7.40;99.90
25939;DHT22;13739;51.172;4.466;2023-03-04T09:39:00;7.60;99.90
25939;DHT22;13739;51.172;4.466;2023-03-04T09:41:47;7.80;99.90
25939;DHT22;13739;51.172;4.466;2023-03-04T09:44:23;8.00;99.90
25939;DHT22;13739;51.172;4.466;2023-03-04T09:46:50;7.90;99.90
25939;DHT22;13739;51.172;4.466;2023-03-04T09:49:18;7.80;99.90
25939;DHT22;13739;51.172;4.466;2023-03-04T09:56:44;8.30;99.90
25939;DHT22;13739;51.172;4.466;2023-03-04T09:59:29;8.20;99.90
25939;DHT22;13739;51.172;4.466;2023-03-04T10:01:59;8.10;99.90
25939;DHT22;13739;51.172;4.466;2023-03-04T10:04:49;8.30;99.90
25939;DHT22;13739;51.172;4.466;2023-03-04T10:07:31;8.20;99.90
25939;DHT22;13739;51.172;4.466;2023-03-04T10:10:03;8.10;99.90
25939;DHT22;13739;51.172;4.466;2023-03-04T10:12:31;7.80;99.90
25939;DHT22;13739;51.172;4.466;2023-03-04T10:17:46;8.10;99.90
25939;DHT22;13739;51.172;4.466;2023-03-04T10:20:30;8.20;99.90
25939;DHT22;13739;51.172;4.466;2023-03-04T10:23:04;8.10;99.90
25939;DHT22;13739;51.172;4.466;2023-03-04T10:25:34;8.10;99.90
25939;DHT22;13739;51.172;4.466;2023-03-04T10:28:16;7.90;99.90
25939;DHT22;13739;51.172;4.466;2023-03-04T10:31:02;7.70;99.90
25939;DHT22;13739;51.172;4.466;2023-03-04T10:33:32;7.70;99.90
25939;DHT22;13739;51.172;4.466;2023-03-04T10:38:39;7.60;99.90
25939;DHT22;13739;51.172;4.466;2023-03-04T10:41:22;7.50;99.90
25939;DHT22;13739;51.172;4.466;2023-03-04T10:44:18;7.50;99.90
25939;DHT22;13739;51.172;4.466;2023-03-04T10:46:47;7.90;99.90
25939;DHT22;13739;51.172;4.466;2023-03-04T10:49:15;7.90;99.90
25939;DHT22;13739;51.172;4.466;2023-03-04T10:52:03;7.90;99.90
25939;DHT22;13739;51.172;4.466;2023-03-04T10:57:05;8.60;99.90
25939;DHT22;13739;51.172;4.466;2023-03-04T11:07:55;8.40;99.90
25939;DHT22;13739;51.172;4.466;2023-03-04T11:15:25;8.30;99.90
25939;DHT22;13739;51.172;4.466;2023-03-04T11:18:15;8.40;99.90
25939;DHT22;13739;51.172;4.466;2023-03-04T11:20:45;8.40;99.90
25939;DHT22;13739;51.172;4.466;2023-03-04T11:23:18;8.50;99.90
25939;DHT22;13739;51.172;4.466;2023-03-04T11:25:54;8.50;99.90
25939;DHT22;13739;51.172;4.466;2023-03-04T11:30:58;8.90;99.90
25939;DHT22;13739;51.172;4.466;2023-03-04T11:33:40;8.60;99.90
25939;DHT22;13739;51.172;4.466;2023-03-04T11:38:43;8.40;99.90
25939;DHT22;13739;51.172;4.466;2023-03-04T11:41:32;8.60;99.90
25939;DHT22;13739;51.172;4.466;2023-03-04T11:44:00;8.60;99.90
25939;DHT22;13739;51.172;4.466;2023-03-04T12:01:00;8.90;99.90
25939;DHT22;13739;51.172;4.466;2023-03-04T12:09:56;8.70;99.90
25939;DHT22;13739;51.172;4.466;2023-03-04T12:18:00;8.50;99.90
25939;DHT22;13739;51.172;4.466;2023-03-04T12:23:48;8.40;99.90
25939;DHT22;13739;51.172;4.466;2023-03-04T12:29:12;8.70;99.90
25939;DHT22;13739;51.172;4.466;2023-03-04T12:31:45;8.50;99.90
25939;DHT22;13739;51.172;4.466;2023-03-04T12:34:42;8.90;99.90
25939;DHT22;13739;51.172;4.466;2023-03-04T12:42:49;9.50;99.90
25939;DHT22;13739;51.172;4.466;2023-03-04T12:45:29;9.20;99.90
25939;DHT22;13739;51.172;4.466;2023-03-04T12:48:24;9.10;99.90
25939;DHT22;13739;51.172;4.466;2023-03-04T12:54:04;8.80;99.90
25939;DHT22;13739;51.172;4.466;2023-03-04T12:58:59;8.90;99.90
25939;DHT22;13739;51.172;4.466;2023-03-04T13:01:26;8.80;99.90
25939;DHT22;13739;51.172;4.466;2023-03-04T13:04:14;8.70;99.90
25939;DHT22;13739;51.172;4.466;2023-03-04T13:09:29;8.40;99.90
25939;DHT22;13739;51.172;4.466;2023-03-04T13:14:36;8.60;99.90
25939;DHT22;13739;51.172;4.466;2023-03-04T13:17:38;8.50;99.90
25939;DHT22;13739;51.172;4.466;2023-03-04T13:20:23;8.70;99.90
25939;DHT22;13739;51.172;4.466;2023-03-04T13:43:51;9.00;99.90
25939;DHT22;13739;51.172;4.466;2023-03-04T13:49:03;8.80;99.90
25939;DHT22;13739;51.172;4.466;2023-03-04T13:51:31;8.80;99.90
25939;DHT22;13739;51.172;4.466;2023-03-04T13:56:31;8.60;99.90
25939;DHT22;13739;51.172;4.466;2023-03-04T14:06:49;8.80;99.90
25939;DHT22;13739;51.172;4.466;2023-03-04T14:09:19;9.00;99.90
25939;DHT22;13739;51.172;4.466;2023-03-04T14:11:45;8.80;99.90
25939;DHT22;13739;51.172;4.466;2023-03-04T14:14:24;8.80;99.90
25939;DHT22;13739;51.172;4.466;2023-03-04T14:17:00;8.70;99.90
25939;DHT22;13739;51.172;4.466;2023-03-04T14:19:37;8.80;99.90
25939;DHT22;13739;51.172;4.466;2023-03-04T14:25:22;8.60;99.90
25939;DHT22;13739;51.172;4.466;2023-03-04T14:27:49;8.40;99.90
25939;DHT22;13739;51.172;4.466;2023-03-04T14:30:26;8.40;99.90
25939;DHT22;13739;51.172;4.466;2023-03-04T14:32:52;8.40;99.90
25939;DHT22;13739;51.172;4.466;2023-03-04T14:35:30;8.30;99.90
25939;DHT22;13739;51.172;4.466;2023-03-04T14:41:02;8.60;99.90
25939;DHT22;13739;51.172;4.466;2023-03-04T14:43:31;8.80;99.90
25939;DHT22;13739;51.172;4.466;2023-03-04T14:46:01;9.00;99.90
25939;DHT22;13739;51.172;4.466;2023-03-04T14:48:30;9.00;99.90
25939;DHT22;13739;51.172;4.466;2023-03-04T14:50:57;9.00;99.90
25939;DHT22;13739;51.172;4.466;2023-03-04T14:53:25;9.10;99.90
25939;DHT22;13739;51.172;4.466;2023-03-04T14:55:59;9.00;99.90
25939;DHT22;13739;51.172;4.466;2023-03-04T14:58:27;9.00;99.90
25939;DHT22;13739;51.172;4.466;2023-03-04T15:03:52;8.90;99.90
25939;DHT22;13739;51.172;4.466;2023-03-04T15:06:22;9.00;99.90
25939;DHT22;13739;51.172;4.466;2023-03-04T15:09:03;9.10;99.90
25939;DHT22;13739;51.172;4.466;2023-03-04T15:11:53;8.90;99.90
25939;DHT22;13739;51.172;4.466;2023-03-04T15:14:46;8.80;99.90
25939;DHT22;13739;51.172;4.466;2023-03-04T15:20:21;8.60;99.90
25939;DHT22;13739;51.172;4.466;2023-03-04T15:25:14;8.60;99.90
25939;DHT22;13739;51.172;4.466;2023-03-04T15:27:40;8.50;99.90
25939;DHT22;13739;51.172;4.466;2023-03-04T15:30:12;8.40;99.90
25939;DHT22;13739;51.172;4.466;2023-03-04T15:32:39;8.60;99.90
25939;DHT22;13739;51.172;4.466;2023-03-04T15:35:05;8.70;99.90
25939;DHT22;13739;51.172;4.466;2023-03-04T15:37:31;8.60;99.90
25939;DHT22;13739;51.172;4.466;2023-03-04T15:39:57;8.50;99.90
25939;DHT22;13739;51.172;4.466;2023-03-04T15:42:23;8.50;99.90
25939;DHT22;13739;51.172;4.466;2023-03-04T15:44:49;8.50;99.90
25939;DHT22;13739;51.172;4.466;2023-03-04T15:47:15;8.40;99.90
25939;DHT22;13739;51.172;4.466;2023-03-04T15:49:42;8.30;99.90
25939;DHT22;13739;51.172;4.466;2023-03-04T15:52:21;8.40;99.90
25939;DHT22;13739;51.172;4.466;2023-03-04T15:54:47;8.40;99.90
25939;DHT22;13739;51.172;4.466;2023-03-04T15:57:25;8.40;99.90
25939;DHT22;13739;51.172;4.466;2023-03-04T15:59:51;8.50;99.90
25939;DHT22;13739;51.172;4.466;2023-03-04T16:02:24;8.50;99.90
25939;DHT22;13739;51.172;4.466;2023-03-04T16:04:52;8.40;99.90
25939;DHT22;13739;51.172;4.466;2023-03-04T16:07:24;8.50;99.90
25939;DHT22;13739;51.172;4.466;2023-03-04T16:09:55;8.60;99.90
25939;DHT22;13739;51.172;4.466;2023-03-04T16:12:21;8.40;99.90
25939;DHT22;13739;51.172;4.466;2023-03-04T16:14:48;8.40;99.90
25939;DHT22;13739;51.172;4.466;2023-03-04T16:17:14;8.30;99.90
25939;DHT22;13739;51.172;4.466;2023-03-04T16:19:40;8.20;99.90
25939;DHT22;13739;51.172;4.466;2023-03-04T16:22:08;8.20;99.90
25939;DHT22;13739;51.172;4.466;2023-03-04T16:24:34;8.20;99.90
25939;DHT22;13739;51.172;4.466;2023-03-04T16:27:00;8.30;99.90
25939;DHT22;13739;51.172;4.466;2023-03-04T16:29:29;8.30;99.90
25939;DHT22;13739;51.172;4.466;2023-03-04T16:31:55;8.20;99.90
25939;DHT22;13739;51.172;4.466;2023-03-04T16:34:20;8.10;99.90
25939;DHT22;13739;51.172;4.466;2023-03-04T16:36:46;8.10;99.90
25939;DHT22;13739;51.172;4.466;2023-03-04T16:39:21;8.20;99.90
25939;DHT22;13739;51.172;4.466;2023-03-04T16:41:49;8.30;99.90
25939;DHT22;13739;51.172;4.466;2023-03-04T16:44:15;8.30;99.90
25939;DHT22;13739;51.172;4.466;2023-03-04T16:46:41;8.20;99.90
25939;DHT22;13739;51.172;4.466;2023-03-04T16:49:06;8.30;99.90
25939;DHT22;13739;51.172;4.466;2023-03-04T16:51:42;8.40;99.90
25939;DHT22;13739;51.172;4.466;2023-03-04T16:54:16;8.20;99.90
25939;DHT22;13739;51.172;4.466;2023-03-04T16:56:43;8.30;99.90
25939;DHT22;13739;51.172;4.466;2023-03-04T16:59:13;8.20;99.90
25939;DHT22;13739;51.172;4.466;2023-03-04T17:01:40;8.20;99.90
25939;DHT22;13739;51.172;4.466;2023-03-04T17:04:05;8.10;99.90
25939;DHT22;13739;51.172;4.466;2023-03-04T17:06:31;8.20;99.90
25939;DHT22;13739;51.172;4.466;2023-03-04T17:08:58;8.40;99.90
25939;DHT22;13739;51.172;4.466;2023-03-04T17:11:24;8.60;99.90
25939;DHT22;13739;51.172;4.466;2023-03-04T17:13:50;8.60;99.90
25939;DHT22;13739;51.172;4.466;2023-03-04T17:16:17;8.50;99.90
25939;DHT22;13739;51.172;4.466;2023-03-04T17:18:42;8.40;99.90
25939;DHT22;13739;51.172;4.466;2023-03-04T17:21:13;8.20;99.90
25939;DHT22;13739;51.172;4.466;2023-03-04T17:23:39;8.20;99.90
25939;DHT22;13739;51.172;4.466;2023-03-04T17:26:05;8.10;99.90
25939;DHT22;13739;51.172;4.466;2023-03-04T17:28:31;8.10;99.90
25939;DHT22;13739;51.172;4.466;2023-03-04T17:30:57;8.00;99.90
25939;DHT22;13739;51.172;4.466;2023-03-04T17:33:23;8.00;99.90
25939;DHT22;13739;51.172;4.466;2023-03-04T17:35:48;8.00;99.90
25939;DHT22;13739;51.172;4.466;2023-03-04T17:38:14;8.00;99.90
25939;DHT22;13739;51.172;4.466;2023-03-04T17:40:41;8.00;99.90
25939;DHT22;13739;51.172;4.466;2023-03-04T17:43:07;7.90;99.90
25939;DHT22;13739;51.172;4.466;2023-03-04T17:45:37;7.90;99.90
25939;DHT22;13739;51.172;4.466;2023-03-04T17:48:04;7.90;99.90
25939;DHT22;13739;51.172;4.466;2023-03-04T17:50:30;7.90;99.90
25939;DHT22;13739;51.172;4.466;2023-03-04T17:52:55;7.90;99.90
25939;DHT22;13739;51.172;4.466;2023-03-04T17:55:21;7.90;99.90
25939;DHT22;13739;51.172;4.466;2023-03-04T17:57:46;7.90;99.90
25939;DHT22;13739;51.172;4.466;2023-03-04T18:00:13;8.00;99.90
25939;DHT22;13739;51.172;4.466;2023-03-04T18:02:39;7.90;99.90